2B7 weather

Pittsfield Municipal Airport
Pittsfield, Maine, United States

Public forecast

Using degrees Fahrenheit for public forecast. Weather courtesy of forecast.io.

Closest aviation weather report (METAR) to Pittsfield Municipal Airport

Closest report is Waterville Robert Lafleur Airport, 19.1 nm (35.4 km) SW. Retrieved 2019/10/19 17:56 UTC (21 minutes ago):

KWVL 191756Z AUTO 28008G14KT 10SM CLR 13/01 A2990 RMK AO2 SLP154 T01280011 10128 20067 55004

Closest aviation forecast (TAF) to Pittsfield Municipal Airport

Closest forecast is Bangor International Airport, 23.4 nm (43.3 km) E. Retrieved 2019/10/19 18:22 UTC (0 seconds ago):

TAF KBGR 191720Z 1918/2018 31010KT P6SM FEW100 FM200500 29003KT P6SM FEW100 FM200600 00000KT P6SM FEW100